Gladstone, Alberta

Past 24 Hour Conditions

This table is a summary of hourly weather conditions for the past 24 hours. This summary includes the following parameters: temperature, humidity, dew point, wind speed and direction, air pressure, visibility and/or wind chill and humidex.
Date / Time
(MDT)
Conditions Temp (°C) Humidity (%) Dew Point (°C) Wind (km/h) Pressure (kPa) Vis (km) Humidex
30 July 2014
13:00 N/A 28   52 18 7 N/A N/A 34
12:00 N/A 27 57 18 4 N/A N/A 33
11:00 N/A 26 55 17 3 N/A N/A 31
10:00 N/A 25 63 17 6 N/A N/A 31
9:00 N/A 22 72 17 6 N/A N/A 28
8:00 N/A 17 95 16 8 N/A N/A *
7:00 N/A 16 93 15 9 N/A N/A *
6:00 N/A 21 64 14 9 N/A N/A 25
5:00 N/A 17 94 16 calm N/A N/A *
4:00 N/A 15   95 14 4 N/A N/A *
3:00 N/A 16 96 15 calm N/A N/A *
2:00 N/A 15   94 14 2 N/A N/A *
1:00 N/A 17 93 16 calm N/A N/A *
00:00 N/A 19 90 17 3 N/A N/A *
29 July 2014
23:00 N/A 20 87 18 6 N/A N/A *
22:00 N/A 21 86 19 6 N/A N/A 27
21:00 N/A 22 87 20 2 N/A N/A 30
20:00 N/A 25 75 20 5 N/A N/A 33
19:00 N/A 27 67 20 4 N/A N/A 34
18:00 N/A 28   55 18 7 N/A N/A 35
17:00 N/A 28   51 17 9 N/A N/A 33
16:00 N/A 28   53 17 13 N/A N/A 33
15:00 N/A 27 54 17 12 N/A N/A 32
14:00 N/A 27 60 18 12 N/A N/A 33
13:00 N/A 25 59 17 13 N/A N/A 30
N/A
Not available
 ↑ 
Highest temperature
 ↓ 
Lowest temperature
*
Value not significant.

If you require additional historical weather information, please visit Climate Data Online.